createdAt,value
2023-02-07T00:03:32.974Z,100.00
2023-02-07T00:06:28.533Z,100.00
2023-02-07T00:09:16.200Z,100.00
2023-02-07T00:12:04.576Z,100.00
2023-02-07T00:14:51.626Z,100.00
2023-02-07T00:17:38.720Z,100.00
2023-02-07T00:20:25.749Z,100.00
2023-02-07T00:23:12.807Z,100.00
2023-02-07T00:26:00.300Z,100.00
2023-02-07T00:28:48.564Z,100.00
2023-02-07T00:31:36.537Z,100.00
2023-02-07T00:34:23.782Z,100.00
2023-02-07T00:37:13.970Z,100.00
2023-02-07T00:40:00.934Z,100.00
2023-02-07T00:42:47.956Z,100.00
2023-02-07T00:45:35.236Z,100.00
2023-02-07T00:48:22.697Z,100.00
2023-02-07T00:51:11.201Z,100.00
2023-02-07T00:53:58.250Z,100.00
2023-02-07T00:56:45.339Z,100.00
2023-02-07T00:59:32.365Z,100.00
2023-02-07T01:02:19.389Z,100.00
2023-02-07T01:05:07.033Z,100.00
2023-02-07T01:07:54.088Z,100.00
2023-02-07T01:10:42.885Z,100.00
2023-02-07T01:13:30.042Z,100.00
2023-02-07T01:16:28.692Z,100.00
2023-02-07T01:19:16.226Z,100.00
2023-02-07T01:22:04.579Z,100.00
2023-02-07T01:24:55.510Z,100.00
2023-02-07T01:27:42.580Z,100.00
2023-02-07T01:30:29.656Z,100.00
2023-02-07T01:33:16.702Z,100.00
2023-02-07T01:36:08.652Z,100.00
2023-02-07T01:38:55.900Z,100.00
2023-02-07T01:41:42.932Z,100.00
2023-02-07T01:44:29.937Z,100.00
2023-02-07T01:47:21.933Z,100.00
2023-02-07T01:50:09.967Z,100.00
2023-02-07T01:53:00.302Z,100.00
2023-02-07T01:55:50.199Z,100.00
2023-02-07T01:58:38.117Z,100.00
2023-02-07T02:01:26.234Z,100.00
2023-02-07T02:04:13.865Z,100.00
2023-02-07T02:07:00.943Z,100.00
2023-02-07T02:09:48.064Z,100.00
2023-02-07T02:12:56.165Z,100.00
2023-02-07T02:16:03.490Z,100.00
2023-02-07T02:18:58.196Z,100.00
2023-02-07T02:21:54.422Z,100.00
2023-02-07T02:25:04.441Z,100.00
2023-02-07T02:28:25.492Z,100.00
2023-02-07T02:31:34.557Z,100.00
2023-02-07T02:34:33.631Z,100.00
2023-02-07T02:37:42.767Z,100.00
2023-02-07T02:40:57.823Z,100.00
2023-02-07T02:43:56.770Z,100.00
2023-02-07T02:46:46.294Z,100.00
2023-02-07T02:49:34.659Z,100.00
2023-02-07T02:52:21.760Z,100.00
2023-02-07T02:55:08.831Z,100.00
2023-02-07T02:57:55.852Z,100.00
2023-02-07T03:01:16.401Z,100.00
2023-02-07T03:04:18.306Z,100.00
2023-02-07T03:07:22.079Z,100.00
2023-02-07T03:10:44.521Z,100.00
2023-02-07T03:14:00.313Z,100.00
2023-02-07T03:16:56.504Z,100.00
2023-02-07T03:19:47.921Z,100.00
2023-02-07T03:22:43.096Z,100.00
2023-02-07T03:25:32.516Z,100.00
2023-02-07T03:28:21.875Z,100.00
2023-02-07T03:31:12.854Z,100.00
2023-02-07T03:34:07.359Z,100.00
2023-02-07T03:37:18.659Z,100.00
2023-02-07T03:40:07.136Z,100.00
2023-02-07T03:43:01.652Z,100.00
2023-02-07T03:45:48.657Z,100.00
2023-02-07T03:48:36.298Z,100.00
2023-02-07T03:51:26.516Z,100.00
2023-02-07T03:54:13.728Z,100.00
2023-02-07T03:57:00.804Z,100.00
2023-02-07T03:59:47.868Z,100.00
2023-02-07T04:02:35.058Z,100.00
2023-02-07T04:05:22.175Z,100.00
2023-02-07T04:08:09.218Z,100.00
2023-02-07T04:11:03.684Z,100.00
2023-02-07T04:13:50.719Z,100.00
2023-02-07T04:16:37.860Z,100.00
2023-02-07T04:19:25.017Z,100.00
2023-02-07T04:22:12.209Z,100.00
2023-02-07T04:24:59.273Z,100.00
2023-02-07T04:27:46.357Z,100.00
2023-02-07T04:30:33.721Z,100.00
2023-02-07T04:33:21.451Z,100.00
2023-02-07T04:36:08.802Z,100.00
2023-02-07T04:38:55.880Z,100.00
2023-02-07T04:41:43.006Z,100.00
2023-02-07T04:44:30.156Z,100.00
2023-02-07T04:47:17.172Z,100.00
2023-02-07T04:50:04.431Z,100.00
2023-02-07T04:52:51.417Z,100.00
2023-02-07T04:55:38.876Z,100.00
2023-02-07T04:58:27.510Z,100.00
2023-02-07T05:01:15.226Z,100.00
2023-02-07T05:04:02.331Z,100.00
2023-02-07T05:06:49.520Z,100.00
2023-02-07T05:09:39.665Z,100.00
2023-02-07T05:12:26.569Z,100.00
2023-02-07T05:15:13.796Z,100.00
2023-02-07T05:18:01.384Z,100.00
2023-02-07T05:20:49.764Z,100.00
2023-02-07T05:23:37.962Z,100.00
2023-02-07T05:26:24.960Z,100.00
2023-02-07T05:29:12.020Z,100.00
2023-02-07T05:32:17.523Z,100.00
2023-02-07T05:35:06.025Z,100.00
2023-02-07T05:37:59.555Z,100.00
2023-02-07T05:40:48.414Z,100.00
2023-02-07T05:43:35.471Z,100.00
2023-02-07T05:46:22.867Z,100.00
2023-02-07T05:49:10.039Z,100.00
2023-02-07T05:51:57.142Z,100.00
2023-02-07T05:54:44.138Z,100.00
2023-02-07T05:57:31.559Z,100.00
2023-02-07T06:00:19.770Z,100.00
2023-02-07T06:03:07.012Z,100.00
2023-02-07T06:05:54.178Z,100.00
2023-02-07T06:08:41.506Z,100.00
2023-02-07T06:11:28.855Z,100.00
2023-02-07T06:14:16.033Z,100.00
2023-02-07T06:17:03.199Z,100.00
2023-02-07T06:19:53.370Z,100.00
2023-02-07T06:22:40.805Z,100.00
2023-02-07T06:25:28.004Z,100.00
2023-02-07T06:28:15.168Z,100.00
2023-02-07T06:31:02.479Z,100.00
2023-02-07T06:33:49.682Z,100.00
2023-02-07T06:36:36.889Z,100.00
2023-02-07T06:39:24.183Z,100.00
2023-02-07T06:42:11.452Z,100.00
2023-02-07T06:44:58.466Z,100.00
2023-02-07T06:47:45.586Z,100.00
2023-02-07T06:50:32.919Z,100.00
2023-02-07T06:53:20.002Z,100.00
2023-02-07T06:56:07.326Z,100.00
2023-02-07T06:58:54.416Z,100.00
2023-02-07T07:01:42.284Z,100.00
2023-02-07T07:04:29.961Z,100.00
2023-02-07T07:07:17.002Z,100.00
2023-02-07T07:10:04.374Z,100.00
2023-02-07T07:12:51.419Z,100.00
2023-02-07T07:15:38.701Z,100.00
2023-02-07T07:18:25.969Z,100.00
2023-02-07T07:21:13.163Z,100.00
2023-02-07T07:24:00.183Z,100.00
2023-02-07T07:26:50.041Z,100.00
2023-02-07T07:29:37.240Z,100.00
2023-02-07T07:32:33.489Z,100.00
2023-02-07T07:35:21.159Z,100.00
2023-02-07T07:38:08.407Z,100.00
2023-02-07T07:40:55.744Z,100.00
2023-02-07T07:43:42.802Z,100.00
2023-02-07T07:46:30.123Z,100.00
2023-02-07T07:49:17.398Z,100.00
2023-02-07T07:52:04.654Z,100.00
2023-02-07T07:54:51.759Z,100.00
2023-02-07T07:57:38.765Z,100.00
2023-02-07T08:00:26.036Z,100.00
2023-02-07T08:03:13.662Z,100.00
2023-02-07T08:06:00.913Z,100.00
2023-02-07T08:08:48.004Z,100.00
2023-02-07T08:11:35.136Z,100.00
2023-02-07T08:14:22.173Z,100.00
2023-02-07T08:17:09.256Z,100.00
2023-02-07T08:19:56.329Z,100.00
2023-02-07T08:22:43.374Z,100.00
2023-02-07T08:25:30.532Z,100.00
2023-02-07T08:28:18.371Z,100.00
2023-02-07T08:31:06.478Z,100.00
2023-02-07T08:33:54.198Z,100.00
2023-02-07T08:36:41.221Z,100.00
2023-02-07T08:39:28.299Z,100.00
2023-02-07T08:42:15.347Z,100.00
2023-02-07T08:45:02.625Z,100.00
2023-02-07T08:47:49.726Z,100.00
2023-02-07T08:50:37.285Z,100.00
2023-02-07T08:53:24.559Z,100.00
2023-02-07T08:56:11.618Z,100.00
2023-02-07T08:59:26.527Z,100.00
2023-02-07T09:02:13.610Z,100.00
2023-02-07T09:05:00.644Z,100.00
2023-02-07T09:07:47.730Z,100.00
2023-02-07T09:10:34.937Z,100.00
2023-02-07T09:13:21.984Z,100.00
2023-02-07T09:16:09.031Z,100.00
2023-02-07T09:18:56.803Z,100.00
2023-02-07T09:21:44.145Z,100.00
2023-02-07T09:24:31.291Z,100.00
2023-02-07T09:27:18.297Z,100.00
2023-02-07T09:30:06.883Z,100.00
2023-02-07T09:32:53.965Z,100.00
2023-02-07T09:35:43.924Z,100.00
2023-02-07T09:38:31.368Z,100.00
2023-02-07T09:41:21.998Z,100.00
2023-02-07T09:44:17.878Z,100.00
2023-02-07T09:47:15.950Z,100.00
2023-02-07T09:50:56.109Z,100.00
2023-02-07T09:53:51.499Z,100.00
2023-02-07T09:56:38.668Z,100.00
2023-02-07T09:59:52.892Z,100.00
2023-02-07T10:02:49.009Z,100.00
2023-02-07T10:05:52.149Z,100.00
2023-02-07T10:08:41.204Z,90.29
2023-02-07T10:11:31.571Z,95.08
2023-02-07T10:14:55.641Z,93.64
2023-02-07T10:17:45.471Z,85.54
2023-02-07T10:20:46.499Z,90.35
2023-02-07T10:24:01.244Z,91.51
2023-02-07T10:26:59.539Z,87.85
2023-02-07T10:29:50.085Z,71.24
2023-02-07T10:32:39.174Z,81.95
2023-02-07T10:35:33.636Z,75.90
2023-02-07T10:38:48.852Z,74.78
2023-02-07T10:41:42.927Z,70.77
2023-02-07T10:44:31.605Z,77.49
2023-02-07T10:47:49.900Z,76.42
2023-02-07T10:50:36.991Z,77.33
2023-02-07T10:54:04.463Z,79.56
2023-02-07T10:57:02.855Z,77.29
2023-02-07T11:00:02.902Z,80.60
2023-02-07T11:02:54.881Z,75.16
2023-02-07T11:05:55.636Z,75.64
2023-02-07T11:08:43.086Z,72.60
2023-02-07T11:11:33.052Z,73.70
2023-02-07T11:14:26.848Z,75.41
2023-02-07T11:17:21.781Z,70.86
2023-02-07T11:20:21.424Z,66.14
2023-02-07T11:23:14.310Z,69.11
2023-02-07T11:26:05.987Z,71.11
2023-02-07T11:29:01.562Z,72.69
2023-02-07T11:31:51.141Z,68.89
2023-02-07T11:34:49.990Z,67.34
2023-02-07T11:37:39.603Z,65.89
2023-02-07T11:40:58.659Z,71.31
2023-02-07T11:43:55.733Z,65.17
2023-02-07T11:46:47.159Z,68.80
2023-02-07T11:49:45.557Z,66.82
2023-02-07T11:52:37.078Z,64.90
2023-02-07T11:55:39.966Z,64.71
2023-02-07T11:58:42.053Z,63.95
2023-02-07T12:01:33.387Z,63.46
2023-02-07T12:04:40.168Z,65.10
2023-02-07T12:07:39.060Z,64.92
2023-02-07T12:10:34.210Z,67.15
2023-02-07T12:13:26.199Z,68.07
2023-02-07T12:16:33.500Z,67.50
2023-02-07T12:19:40.190Z,66.52
2023-02-07T12:22:35.924Z,65.00
2023-02-07T12:25:29.969Z,65.02
2023-02-07T12:28:33.630Z,67.09
2023-02-07T12:31:51.357Z,68.90
2023-02-07T12:34:54.561Z,67.08
2023-02-07T12:37:56.651Z,64.78
2023-02-07T12:41:16.112Z,63.93
2023-02-07T12:44:28.703Z,64.04
2023-02-07T12:47:34.673Z,62.37
2023-02-07T12:51:01.724Z,62.75
2023-02-07T12:54:16.908Z,61.00
2023-02-07T12:57:45.297Z,61.68
2023-02-07T13:01:16.048Z,63.90
2023-02-07T13:04:08.787Z,63.58
2023-02-07T13:07:07.774Z,61.61
2023-02-07T13:10:42.482Z,58.46
2023-02-07T13:13:38.644Z,59.33
2023-02-07T13:16:55.441Z,59.36
2023-02-07T13:20:00.355Z,57.62
2023-02-07T13:22:49.425Z,57.12
2023-02-07T13:25:44.239Z,57.82
2023-02-07T13:28:44.563Z,62.15
2023-02-07T13:31:40.077Z,59.16
2023-02-07T13:34:42.175Z,59.28
2023-02-07T13:37:43.682Z,61.99
2023-02-07T13:40:33.669Z,61.69
2023-02-07T13:43:26.755Z,59.66
2023-02-07T13:46:58.975Z,59.03
2023-02-07T13:49:54.578Z,59.25
2023-02-07T13:52:53.710Z,61.38
2023-02-07T13:55:43.065Z,63.00
2023-02-07T13:58:51.774Z,60.80
2023-02-07T14:01:58.290Z,61.88
2023-02-07T14:04:49.826Z,61.34
2023-02-07T14:07:39.444Z,61.97
2023-02-07T14:10:39.803Z,61.16
2023-02-07T14:13:26.872Z,61.70
2023-02-07T14:17:06.076Z,60.06
2023-02-07T14:20:00.825Z,62.49
2023-02-07T14:23:25.062Z,61.25
2023-02-07T14:26:50.703Z,61.08
2023-02-07T14:29:52.549Z,61.84
2023-02-07T14:32:44.138Z,61.68
2023-02-07T14:35:34.917Z,61.24
2023-02-07T14:38:42.520Z,61.32
2023-02-07T14:41:33.822Z,62.62
2023-02-07T14:44:29.044Z,62.00
2023-02-07T14:47:23.866Z,62.96
2023-02-07T14:50:21.390Z,63.37
2023-02-07T14:53:14.445Z,65.91
2023-02-07T14:56:04.691Z,63.64
2023-02-07T14:58:54.686Z,68.77
2023-02-07T15:01:43.165Z,69.45
2023-02-07T15:04:38.166Z,69.58
2023-02-07T15:07:25.432Z,68.70
2023-02-07T15:10:28.838Z,69.19
2023-02-07T15:13:46.159Z,72.96
2023-02-07T15:16:38.613Z,76.93
2023-02-07T15:19:38.714Z,78.98
2023-02-07T15:25:57.636Z,84.70
2023-02-07T15:28:49.758Z,86.13
2023-02-07T15:31:52.167Z,86.32
2023-02-07T15:34:39.805Z,87.62
2023-02-07T15:37:27.890Z,93.35
2023-02-07T15:40:18.286Z,93.04
2023-02-07T15:43:05.771Z,93.74
2023-02-07T15:46:04.859Z,99.36
2023-02-07T15:48:58.305Z,100.00
2023-02-07T15:51:45.600Z,100.00
2023-02-07T15:54:38.622Z,100.00
2023-02-07T15:57:40.918Z,100.00
2023-02-07T16:00:37.834Z,100.00
2023-02-07T16:03:48.616Z,100.00
2023-02-07T16:07:16.513Z,100.00
2023-02-07T16:10:45.072Z,100.00
2023-02-07T16:13:40.451Z,100.00
2023-02-07T16:19:51.685Z,100.00
2023-02-07T16:22:51.814Z,100.00
2023-02-07T16:25:49.575Z,100.00
2023-02-07T16:28:45.402Z,100.00
2023-02-07T16:31:42.740Z,100.00
2023-02-07T16:34:58.572Z,100.00
2023-02-07T16:38:01.972Z,100.00
2023-02-07T16:41:10.325Z,100.00
2023-02-07T16:44:02.085Z,100.00
2023-02-07T16:46:49.980Z,100.00
2023-02-07T16:49:38.429Z,100.00
2023-02-07T16:52:25.802Z,100.00
2023-02-07T16:55:13.304Z,100.00
2023-02-07T16:58:04.963Z,100.00
2023-02-07T17:00:53.085Z,100.00
2023-02-07T17:03:40.653Z,100.00
2023-02-07T17:06:31.774Z,100.00
2023-02-07T17:09:27.252Z,100.00
2023-02-07T17:12:17.912Z,100.00
2023-02-07T17:15:09.272Z,100.00
2023-02-07T17:18:03.522Z,100.00
2023-02-07T17:20:52.216Z,100.00
2023-02-07T17:23:39.780Z,100.00
2023-02-07T17:26:35.976Z,100.00
2023-02-07T17:29:23.818Z,100.00
2023-02-07T17:32:11.294Z,100.00
2023-02-07T17:34:59.039Z,100.00
2023-02-07T17:37:52.599Z,100.00
2023-02-07T17:40:42.021Z,100.00
2023-02-07T17:43:36.081Z,100.00
2023-02-07T17:46:27.475Z,100.00
2023-02-07T17:49:17.298Z,100.00
2023-02-07T17:52:09.653Z,100.00
2023-02-07T17:55:00.952Z,100.00
2023-02-07T17:57:49.091Z,100.00
2023-02-07T18:00:42.945Z,100.00
2023-02-07T18:03:31.117Z,100.00
2023-02-07T18:06:21.198Z,100.00
2023-02-07T18:09:18.074Z,100.00
2023-02-07T18:12:07.432Z,100.00
2023-02-07T18:14:56.621Z,100.00
2023-02-07T18:17:48.183Z,100.00
2023-02-07T18:20:36.531Z,100.00
2023-02-07T18:23:24.571Z,100.00
2023-02-07T18:26:15.633Z,100.00
2023-02-07T18:29:04.138Z,100.00
2023-02-07T18:31:52.201Z,100.00
2023-02-07T18:34:40.522Z,100.00
2023-02-07T18:37:28.973Z,100.00
2023-02-07T18:40:17.230Z,100.00
2023-02-07T18:43:05.872Z,100.00
2023-02-07T18:45:53.915Z,100.00
2023-02-07T18:48:41.723Z,100.00
2023-02-07T18:51:30.325Z,100.00
2023-02-07T18:54:18.234Z,100.00
2023-02-07T18:57:12.202Z,100.00
2023-02-07T19:00:00.400Z,100.00
2023-02-07T19:02:49.574Z,100.00
2023-02-07T19:05:38.541Z,100.00
2023-02-07T19:08:28.361Z,100.00
2023-02-07T19:11:17.144Z,100.00
2023-02-07T19:14:10.321Z,100.00
2023-02-07T19:16:59.588Z,100.00
2023-02-07T19:19:48.112Z,100.00
2023-02-07T19:22:37.800Z,100.00
2023-02-07T19:25:25.736Z,100.00
2023-02-07T19:28:13.723Z,100.00
2023-02-07T19:31:09.634Z,100.00
2023-02-07T19:33:58.924Z,100.00
2023-02-07T19:36:47.231Z,100.00
2023-02-07T19:39:35.033Z,100.00
2023-02-07T19:42:24.687Z,100.00
2023-02-07T19:45:13.396Z,100.00
2023-02-07T19:48:01.402Z,100.00
2023-02-07T19:50:57.329Z,100.00
2023-02-07T19:53:47.030Z,100.00
2023-02-07T19:56:37.279Z,100.00
2023-02-07T19:59:25.366Z,100.00
2023-02-07T20:02:15.556Z,100.00
2023-02-07T20:05:13.161Z,100.00
2023-02-07T20:08:01.038Z,100.00
2023-02-07T20:10:49.702Z,100.00
2023-02-07T20:13:43.966Z,100.00
2023-02-07T20:16:35.482Z,100.00
2023-02-07T20:19:24.205Z,100.00
2023-02-07T20:22:12.385Z,100.00
2023-02-07T20:25:00.384Z,100.00
2023-02-07T20:27:48.259Z,100.00
2023-02-07T20:30:36.988Z,100.00
2023-02-07T20:33:25.187Z,100.00
2023-02-07T20:36:16.058Z,100.00
2023-02-07T20:39:03.470Z,100.00
2023-02-07T20:41:52.299Z,100.00
2023-02-07T20:44:40.285Z,100.00
2023-02-07T20:47:32.817Z,100.00
2023-02-07T20:50:21.948Z,100.00
2023-02-07T20:53:09.513Z,100.00
2023-02-07T20:56:11.215Z,100.00
2023-02-07T20:58:58.719Z,100.00
2023-02-07T21:01:47.654Z,100.00
2023-02-07T21:04:37.128Z,100.00
2023-02-07T21:07:24.879Z,100.00
2023-02-07T21:10:12.286Z,100.00
2023-02-07T21:12:59.725Z,100.00
2023-02-07T21:16:01.405Z,100.00
2023-02-07T21:18:50.781Z,100.00
2023-02-07T21:21:40.030Z,100.00
2023-02-07T21:24:27.318Z,100.00
2023-02-07T21:27:14.834Z,100.00
2023-02-07T21:30:02.461Z,100.00
2023-02-07T21:32:49.705Z,100.00
2023-02-07T21:35:37.020Z,100.00
2023-02-07T21:38:24.129Z,100.00
2023-02-07T21:41:13.342Z,100.00
2023-02-07T21:44:01.258Z,100.00
2023-02-07T21:46:51.036Z,100.00
2023-02-07T21:49:38.379Z,100.00
2023-02-07T21:52:25.440Z,100.00
2023-02-07T21:55:12.551Z,100.00
2023-02-07T21:57:59.558Z,100.00
2023-02-07T22:00:46.769Z,100.00
2023-02-07T22:03:34.026Z,100.00
2023-02-07T22:06:22.112Z,100.00
2023-02-07T22:09:12.463Z,100.00
2023-02-07T22:11:59.563Z,100.00
2023-02-07T22:14:46.624Z,100.00
2023-02-07T22:17:33.728Z,100.00
2023-02-07T22:20:20.763Z,100.00
2023-02-07T22:23:07.861Z,100.00
2023-02-07T22:25:54.891Z,100.00
2023-02-07T22:28:42.268Z,100.00
2023-02-07T22:31:31.498Z,100.00
2023-02-07T22:34:19.173Z,100.00
2023-02-07T22:37:06.233Z,100.00
2023-02-07T22:39:53.318Z,100.00
2023-02-07T22:42:40.373Z,100.00
2023-02-07T22:45:27.687Z,100.00
2023-02-07T22:48:16.186Z,100.00
2023-02-07T22:51:23.634Z,100.00
2023-02-07T22:54:16.381Z,100.00
2023-02-07T22:57:03.514Z,100.00
2023-02-07T22:59:50.545Z,100.00
2023-02-07T23:02:37.718Z,100.00
2023-02-07T23:05:24.739Z,100.00
2023-02-07T23:08:13.328Z,100.00
2023-02-07T23:11:00.345Z,100.00
2023-02-07T23:13:47.641Z,100.00
2023-02-07T23:16:35.814Z,100.00
2023-02-07T23:19:22.924Z,100.00
2023-02-07T23:22:09.957Z,100.00
2023-02-07T23:24:57.058Z,100.00
2023-02-07T23:27:45.077Z,100.00
2023-02-07T23:30:32.279Z,100.00
2023-02-07T23:33:19.306Z,100.00
2023-02-07T23:36:07.605Z,100.00
2023-02-07T23:38:54.678Z,100.00
2023-02-07T23:41:41.762Z,100.00
2023-02-07T23:44:28.778Z,100.00
2023-02-07T23:47:17.325Z,100.00
2023-02-07T23:50:04.532Z,100.00
2023-02-07T23:52:51.788Z,100.00
2023-02-07T23:55:44.647Z,100.00
2023-02-07T23:58:32.716Z,100.00
